Time;durP1;ratioP1;P1;durP2;ratioP2;P2;SDS_P1;SDS_P2;PMS_P1;PMS_P2;Temp;Humidity;BMP_temperature;BMP_pressure;BME280_temperature;BME280_humidity;BME280_pressure;Samples;Min_cycle;Max_cycle;Signal;HPM_P1;HPM_P2
2022/06/14 00:01:31;;;;;;;2.45;2.10;;;;;;;10.78;75.15;97431.08;1791096;80;25787;-79
2022/06/14 00:04:16;;;;;;;4.37;2.40;;;;;;;10.76;75.21;97433.67;1790956;80;25664;-80
2022/06/14 00:07:02;;;;;;;6.17;2.55;;;;;;;10.71;75.16;97434.33;1791057;80;27487;-79
2022/06/14 00:09:28;;;;;;;5.28;2.98;;;;;;;10.60;75.10;97434.16;1791177;80;25466;-80
2022/06/14 00:11:55;;;;;;;5.30;2.50;;;;;;;10.58;75.18;97437.05;1791492;80;25664;-78
2022/06/14 00:14:21;;;;;;;5.45;2.33;;;;;;;10.54;75.12;97436.33;1791301;80;25655;-77
2022/06/14 00:16:48;;;;;;;6.80;2.85;;;;;;;10.44;75.06;97441.64;1791360;80;25651;-79
2022/06/14 00:19:14;;;;;;;6.92;3.15;;;;;;;10.41;75.16;97445.27;1791298;80;27359;-78
2022/06/14 00:21:41;;;;;;;3.80;2.75;;;;;;;10.37;75.31;97446.23;1791269;80;25612;-79
2022/06/14 00:24:07;;;;;;;6.10;2.98;;;;;;;10.35;75.40;97442.91;1791232;80;25707;-79
2022/06/14 00:26:34;;;;;;;6.03;2.92;;;;;;;10.37;75.47;97446.23;1791385;80;25675;-78
2022/06/14 00:29:01;;;;;;;6.00;3.27;;;;;;;10.35;75.43;97445.60;1791250;80;25912;-78
2022/06/14 00:31:29;;;;;;;6.20;3.30;;;;;;;10.22;75.23;97445.61;1791307;80;27185;-78
2022/06/14 00:33:57;;;;;;;8.15;3.58;;;;;;;10.12;75.38;97447.86;1791057;80;25637;-79
2022/06/14 00:36:32;;;;;;;8.45;3.20;;;;;;;10.08;75.54;97443.39;1791307;80;25747;-81
2022/06/14 00:39:04;;;;;;;9.60;3.27;;;;;;;10.12;75.69;97447.86;1792635;80;25684;-79
2022/06/14 00:41:39;;;;;;;4.03;3.15;;;;;;;10.12;75.67;97447.86;1793710;80;25224;-80
2022/06/14 00:44:09;;;;;;;6.45;3.45;;;;;;;10.05;75.61;97454.58;1793720;80;27579;-79
2022/06/14 00:46:47;;;;;;;7.97;3.10;;;;;;;10.02;75.77;97443.41;1793369;80;25493;-79
2022/06/14 00:49:19;;;;;;;9.70;3.08;;;;;;;10.06;75.79;97458.11;1703277;83;25825;-80
2022/06/14 00:51:56;;;;;;;7.55;3.65;;;;;;;10.01;75.71;97456.57;1703399;83;26412;-79
2022/06/14 00:54:29;;;;;;;5.65;3.62;;;;;;;9.97;75.82;97455.31;1672141;84;25936;-79
2022/06/14 00:57:07;;;;;;;9.25;3.90;;;;;;;9.88;75.64;97457.39;1674906;84;27391;-81
2022/06/14 00:59:48;;;;;;;10.15;3.62;;;;;;;9.81;75.82;97467.31;1674828;84;25753;-78
2022/06/14 01:02:22;;;;;;;12.63;3.83;;;;;;;9.67;75.74;97458.38;1672669;84;25776;-78
2022/06/14 01:04:49;;;;;;;8.28;3.60;;;;;;;9.60;75.92;97461.58;1674767;84;26468;-79
2022/06/14 01:07:26;;;;;;;9.28;4.15;;;;;;;9.54;76.04;97462.37;1674896;84;25988;-77
2022/06/14 01:10:06;;;;;;;9.75;3.50;;;;;;;9.52;76.19;97463.13;1592625;88;27392;-80
2022/06/14 01:12:37;;;;;;;7.60;3.52;;;;;;;9.53;76.36;97459.40;1591011;90;25888;-79
2022/06/14 01:15:21;;;;;;;9.15;4.05;;;;;;;9.58;76.40;97467.69;1592411;90;25858;-79
2022/06/14 01:17:52;;;;;;;7.70;3.60;;;;;;;9.58;76.31;97470.37;1592387;90;26597;-80
2022/06/14 01:20:21;;;;;;;10.85;3.25;;;;;;;9.55;76.32;97468.08;1542460;93;25788;-78
2022/06/14 01:22:51;;;;;;;6.72;3.87;;;;;;;9.55;76.42;97464.05;1542475;91;28447;-78
2022/06/14 01:25:18;;;;;;;9.85;3.72;;;;;;;9.57;76.46;97467.88;1542591;91;25358;-78
2022/06/14 01:27:45;;;;;;;9.25;4.03;;;;;;;9.52;76.38;97469.86;1522092;93;25899;-79
2022/06/14 01:30:19;;;;;;;11.43;3.90;;;;;;;9.55;76.62;97469.95;1542498;91;25669;-78
2022/06/14 01:33:00;;;;;;;7.83;4.08;;;;;;;9.59;76.67;97468.00;1542440;91;25839;-79
2022/06/14 01:35:32;;;;;;;8.48;3.90;;;;;;;9.61;76.65;97468.63;1542591;91;26670;-78
2022/06/14 01:38:02;;;;;;;12.45;4.17;;;;;;;9.61;76.56;97471.33;1539536;91;25600;-79
2022/06/14 01:40:59;;;;;;;6.12;3.35;;;;;;;9.60;76.60;97470.18;1540337;93;25806;-79
2022/06/14 01:44:23;;;;;;;6.42;2.83;;;;;;;9.63;76.55;97469.27;1516298;94;25757;-81
2022/06/14 01:47:06;;;;;;;6.05;3.33;;;;;;;9.63;76.49;97476.00;1529725;93;25831;-79
2022/06/14 01:52:54;;;;;;;6.87;3.65;;;;;;;9.56;76.41;97479.18;1456948;96;25864;-79
2022/06/14 01:55:50;;;;;;;8.48;3.50;;;;;;;9.44;76.40;97482.15;1456496;98;25827;-78
2022/06/14 01:58:47;;;;;;;7.20;3.55;;;;;;;9.46;76.73;97482.78;1456305;98;26262;-80
2022/06/14 02:01:40;;;;;;;34.58;4.40;;;;;;;9.45;76.79;97481.63;1489642;96;25338;-78
2022/06/14 02:04:39;;;;;;;10.00;3.92;;;;;;;9.46;77.00;97480.09;1497192;95;27669;-78
2022/06/14 02:07:14;;;;;;;7.12;4.10;;;;;;;9.46;77.01;97481.95;1500325;95;25476;-77
2022/06/14 02:10:13;;;;;;;5.97;3.65;;;;;;;9.43;77.05;97485.87;1497727;95;26587;-80
2022/06/14 02:12:57;;;;;;;5.42;4.00;;;;;;;9.42;77.18;97485.55;1511589;92;25789;-78
2022/06/14 02:15:40;;;;;;;7.28;3.77;;;;;;;9.39;77.24;97485.47;1512269;94;25885;-78
2022/06/14 02:18:47;;;;;;;6.05;3.83;;;;;;;9.43;77.28;97484.52;1546829;92;27481;-78
2022/06/14 02:21:40;;;;;;;8.43;3.90;;;;;;;9.40;77.27;97486.30;1548801;92;25930;-77
2022/06/14 02:24:14;;;;;;;8.90;3.98;;;;;;;9.44;77.51;97484.84;1547807;92;25859;-78
2022/06/14 02:27:13;;;;;;;5.85;4.70;;;;;;;9.52;77.64;97486.55;1523127;94;25774;-79
2022/06/14 02:29:54;;;;;;;5.78;3.87;;;;;;;9.55;77.78;97490.98;1522843;93;25797;-80
2022/06/14 02:32:27;;;;;;;8.15;4.17;;;;;;;9.57;77.85;97483.54;1540704;92;27676;-78
2022/06/14 02:35:05;;;;;;;7.67;4.05;;;;;;;9.61;77.87;97484.80;1538160;93;25884;-78
2022/06/14 02:37:39;;;;;;;8.10;4.08;;;;;;;9.64;77.85;97487.09;1501831;95;25783;-80
2022/06/14 02:40:11;;;;;;;5.47;3.92;;;;;;;9.66;77.81;97487.70;1512990;93;25860;-78
2022/06/14 02:42:43;;;;;;;7.08;3.87;;;;;;;9.65;77.81;97489.28;1522620;94;25385;-78
2022/06/14 02:45:33;;;;;;;4.80;4.00;;;;;;;9.66;77.92;97502.52;1494136;95;27393;-80
2022/06/14 02:48:28;;;;;;;6.03;4.03;;;;;;;9.71;77.94;97502.76;1461929;98;25905;-80
2022/06/14 02:51:09;;;;;;;7.58;4.20;;;;;;;9.75;78.10;97506.72;1439819;98;25891;-78
2022/06/14 02:53:41;;;;;;;6.92;4.50;;;;;;;9.82;78.20;97513.98;1459595;98;25814;-78
2022/06/14 02:56:37;;;;;;;10.82;4.70;;;;;;;9.83;78.33;97512.95;1459283;97;25902;-78
2022/06/14 02:59:45;;;;;;;5.62;4.42;;;;;;;9.84;78.41;97520.00;1425879;99;25711;-77
2022/06/14 03:02:34;;;;;;;6.42;4.37;;;;;;;9.87;78.44;97514.21;1453820;97;25900;-77
2022/06/14 03:05:54;;;;;;;7.25;5.17;;;;;;;9.87;78.45;97519.09;1420898;99;25846;-79
2022/06/14 03:08:50;;;;;;;5.22;4.12;;;;;;;9.90;78.46;97517.85;1399107;101;25853;-79
2022/06/14 03:12:07;;;;;;;6.42;4.05;;;;;;;9.92;78.49;97515.76;1399215;101;25903;-80
2022/06/14 03:15:16;;;;;;;8.35;4.50;;;;;;;9.92;78.58;97509.02;1399341;102;26035;-78
2022/06/14 03:18:50;;;;;;;5.60;4.37;;;;;;;9.91;78.59;97515.44;1416795;101;25978;-77
2022/06/14 03:21:40;;;;;;;5.47;4.30;;;;;;;9.92;78.63;97517.11;1394543;102;25876;-78
2022/06/14 03:24:17;;;;;;;6.50;4.45;;;;;;;9.96;78.76;97521.06;1415238;101;26340;-79
2022/06/14 03:26:56;;;;;;;10.40;4.58;;;;;;;10.02;78.76;97528.36;1396828;101;25824;-79
2022/06/14 03:30:00;;;;;;;8.90;5.62;;;;;;;10.06;78.81;97532.28;1396381;101;27449;-78
2022/06/14 03:32:37;;;;;;;11.08;5.50;;;;;;;10.07;78.93;97531.25;1405965;102;25924;-79
2022/06/14 03:35:15;;;;;;;7.45;5.92;;;;;;;10.11;78.98;97537.91;1418164;101;25899;-82
2022/06/14 03:37:42;;;;;;;10.32;6.20;;;;;;;10.14;78.86;97544.25;1395253;100;25838;-78
2022/06/14 03:40:13;;;;;;;7.95;6.20;;;;;;;10.21;78.80;97549.15;1403587;101;25965;-79
2022/06/14 03:42:41;;;;;;;10.08;6.42;;;;;;;10.28;78.71;97548.63;1413396;100;27492;-80
2022/06/14 03:45:10;;;;;;;10.43;7.08;;;;;;;10.31;78.70;97546.87;1464304;94;25378;-79
2022/06/14 03:47:37;;;;;;;15.50;6.90;;;;;;;10.31;78.71;97553.63;1494898;95;25468;-79
2022/06/14 03:50:12;;;;;;;8.30;6.25;;;;;;;10.28;78.82;97542.41;1494974;95;25867;-81
2022/06/14 03:52:58;;;;;;;7.75;5.90;;;;;;;10.27;78.90;97544.27;1503833;93;25915;-78
2022/06/14 03:55:49;;;;;;;6.10;5.50;;;;;;;10.28;78.91;97551.33;1545188;91;27408;-80
2022/06/14 03:58:27;;;;;;;7.20;5.65;;;;;;;10.33;78.98;97552.91;1544304;92;25916;-78
2022/06/14 04:01:01;;;;;;;7.97;5.53;;;;;;;10.35;79.00;97554.05;1548063;88;25827;-81
2022/06/14 04:03:36;;;;;;;9.28;6.30;;;;;;;10.41;79.05;97564.83;1590768;89;25755;-78
2022/06/14 04:06:20;;;;;;;9.88;6.20;;;;;;;10.47;78.90;97556.44;1589321;90;25753;-80
2022/06/14 04:09:12;;;;;;;9.08;5.35;;;;;;;10.52;78.84;97561.20;1589726;89;27428;-78
2022/06/14 04:11:56;;;;;;;7.63;6.07;;;;;;;10.55;78.81;97555.40;1592891;90;25860;-78
2022/06/14 04:15:00;;;;;;;9.23;5.75;;;;;;;10.56;78.81;97553.84;1537781;93;25880;-79
2022/06/14 04:17:59;;;;;;;9.48;5.65;;;;;;;10.54;78.83;97557.27;1517451;94;26450;-79
2022/06/14 04:20:34;;;;;;;7.75;5.12;;;;;;;10.54;78.94;97551.03;1537663;92;25849;-78
2022/06/14 04:23:12;;;;;;;9.80;6.00;;;;;;;10.54;78.99;97551.87;1468254;97;28148;-78
2022/06/14 04:25:53;;;;;;;7.42;5.40;;;;;;;10.55;79.00;97550.83;1473785;95;25364;-78
2022/06/14 04:28:46;;;;;;;10.88;5.85;;;;;;;10.55;78.99;97558.09;1473766;97;25821;-78
2022/06/14 04:31:20;;;;;;;8.53;5.35;;;;;;;10.53;78.97;97555.60;1468769;96;25880;-78
2022/06/14 04:34:19;;;;;;;6.03;5.40;;;;;;;10.50;79.01;97553.86;1483727;92;25821;-76
2022/06/14 04:36:54;;;;;;;6.97;4.95;;;;;;;10.52;79.07;97561.20;1546375;92;27477;-78
2022/06/14 04:39:25;;;;;;;7.95;5.95;;;;;;;10.55;79.13;97558.09;1545513;92;25839;-79
2022/06/14 04:42:19;;;;;;;;;;;;;;;10.57;79.10;97559.55;1582087;89;25803;-78
2022/06/14 04:44:54;;;;;;;8.55;6.35;;;;;;;10.62;79.24;97555.73;1591199;89;26419;-80
2022/06/14 04:47:40;;;;;;;10.20;6.33;;;;;;;10.66;79.30;97557.47;1515691;93;25777;-78
2022/06/14 04:50:20;;;;;;;13.22;7.42;;;;;;;10.72;79.30;97562.05;1478646;96;28299;-79
2022/06/14 04:53:01;;;;;;;8.05;7.05;;;;;;;10.78;79.21;97560.69;1498243;95;26574;-77
2022/06/14 04:55:36;;;;;;;10.93;7.20;;;;;;;10.83;79.23;97562.77;1499719;95;25901;-77
2022/06/14 04:58:26;;;;;;;10.00;6.72;;;;;;;10.88;79.33;97563.47;1472334;97;25953;-77
2022/06/14 05:00:57;;;;;;;9.08;6.53;;;;;;;10.92;79.34;97565.56;1429938;100;25881;-79
2022/06/14 05:03:29;;;;;;;11.28;7.10;;;;;;;11.00;79.35;97570.73;1408719;101;28353;-78
2022/06/14 05:06:04;;;;;;;10.25;6.65;;;;;;;11.10;79.35;97571.16;1378927;104;25841;-77
2022/06/14 05:08:35;;;;;;;9.28;6.33;;;;;;;11.22;79.38;97574.56;1376815;104;25855;-78
2022/06/14 05:11:18;;;;;;;10.63;5.92;;;;;;;11.32;79.31;97568.20;1379026;104;25943;-78
2022/06/14 05:14:02;;;;;;;9.63;5.90;;;;;;;11.42;79.34;97575.33;1360930;105;25805;-78
2022/06/14 05:16:49;;;;;;;9.60;6.50;;;;;;;11.49;79.47;97569.37;1333015;106;27715;-76
2022/06/14 05:20:27;;;;;;;8.65;6.35;;;;;;;11.54;79.68;97570.93;1296146;109;25952;-77
2022/06/14 05:23:22;;;;;;;11.22;6.85;;;;;;;11.65;79.74;97575.67;1323338;108;25866;-76
2022/06/14 05:26:16;;;;;;;12.58;7.28;;;;;;;11.74;79.60;97571.67;1323425;108;25710;-77
2022/06/14 05:29:12;;;;;;;11.90;6.83;;;;;;;11.83;79.46;97574.46;1315796;109;25922;-77
2022/06/14 05:31:47;;;;;;;9.28;7.45;;;;;;;11.92;79.47;97571.53;1297601;110;27589;-76
2022/06/14 05:34:19;;;;;;;14.63;7.75;;;;;;;11.98;79.38;97572.00;1309396;109;26061;-76
2022/06/14 05:36:59;;;;;;;11.65;7.33;;;;;;;12.03;79.38;97573.55;1327100;108;25857;-78
2022/06/14 05:39:49;;;;;;;11.90;7.05;;;;;;;12.02;79.48;97565.12;1291284;109;26584;-78
2022/06/14 05:42:20;;;;;;;9.28;7.10;;;;;;;12.00;79.54;97571.27;1252010;113;25878;-76
2022/06/14 05:44:57;;;;;;;11.70;8.03;;;;;;;11.98;79.81;97566.59;1255560;112;27675;-75
2022/06/14 05:47:37;;;;;;;12.58;8.28;;;;;;;12.00;79.92;97567.22;1257745;113;25467;-76
2022/06/14 05:50:11;;;;;;;16.20;8.60;;;;;;;12.08;80.29;97570.48;1255034;114;26098;-76
2022/06/14 05:52:45;;;;;;;11.83;7.70;;;;;;;12.17;80.32;97577.85;1257917;114;25902;-76
2022/06/14 05:55:37;;;;;;;14.68;7.83;;;;;;;12.25;80.25;97574.88;1277232;112;26041;-76
2022/06/14 05:58:17;;;;;;;15.38;8.70;;;;;;;12.37;80.50;97575.84;1290553;110;27737;-75
2022/06/14 06:01:01;;;;;;;11.80;7.95;;;;;;;12.44;80.21;97573.91;1306753;108;25918;-76
2022/06/14 06:03:55;;;;;;;15.13;8.25;;;;;;;12.50;80.18;97580.34;1354831;105;25861;-77
2022/06/14 06:06:27;;;;;;;11.63;7.40;;;;;;;12.56;80.08;97582.98;1354827;105;25726;-76
2022/06/14 06:09:26;;;;;;;11.60;7.58;;;;;;;12.65;80.20;97582.73;1354387;105;25950;-76
2022/06/14 06:12:11;;;;;;;12.75;7.45;;;;;;;12.74;79.77;97586.30;1406596;101;27639;-78
2022/06/14 06:14:46;;;;;;;9.83;7.20;;;;;;;12.81;79.43;97586.23;1386228;103;25879;-75
2022/06/14 06:17:21;;;;;;;12.07;6.65;;;;;;;12.80;79.04;97589.46;1439008;99;25885;-80
2022/06/14 06:20:13;;;;;;;13.98;7.25;;;;;;;12.86;78.71;97593.18;1453752;96;25889;-78
2022/06/14 06:23:07;;;;;;;17.93;7.57;;;;;;;12.94;78.76;97596.95;1453615;98;25908;-78
2022/06/14 06:25:41;;;;;;;12.43;7.10;;;;;;;12.99;78.92;97593.91;1431552;99;27519;-81
2022/06/14 06:28:16;;;;;;;11.38;7.15;;;;;;;13.06;78.81;97592.99;1431389;100;25911;-81
2022/06/14 06:31:03;;;;;;;11.97;7.20;;;;;;;13.11;78.74;97594.53;1431579;100;25789;-80
2022/06/14 06:33:33;;;;;;;13.03;6.75;;;;;;;13.20;78.40;97595.40;1431549;99;26263;-82
2022/06/14 06:36:28;;;;;;;11.33;6.10;;;;;;;13.28;78.24;97589.67;1431611;100;25827;-79
2022/06/14 06:39:19;;;;;;;16.02;6.87;;;;;;;13.40;78.45;97586.25;1428551;100;28276;-80
2022/06/14 06:41:50;;;;;;;12.10;6.08;;;;;;;13.48;78.43;97594.08;1483869;95;25804;-78
2022/06/14 06:44:38;;;;;;;14.63;5.83;;;;;;;13.53;77.96;97586.08;1464104;96;26152;-79
2022/06/14 06:47:21;;;;;;;9.15;5.95;;;;;;;13.67;77.63;97587.06;1481649;95;25811;-79
2022/06/14 06:49:56;;;;;;;10.20;5.50;;;;;;;13.84;77.17;97591.89;1477002;95;25895;-79
2022/06/14 06:52:43;;;;;;;8.00;4.80;;;;;;;13.99;76.70;97588.27;1510527;94;27785;-80
2022/06/14 06:55:15;;;;;;;11.85;5.08;;;;;;;14.15;76.45;97597.64;1483846;95;25550;-80
2022/06/14 06:57:45;;;;;;;8.35;5.28;;;;;;;14.25;75.63;97596.59;1498043;93;25825;-81
2022/06/14 07:00:17;;;;;;;9.13;4.80;;;;;;;14.29;75.26;97599.13;1506734;93;25857;-80
2022/06/14 07:02:58;;;;;;;7.87;4.58;;;;;;;14.31;75.22;97599.73;1535755;91;26015;-80
2022/06/14 07:05:25;;;;;;;7.40;4.00;;;;;;;14.38;74.93;97605.88;1535577;93;28235;-82
2022/06/14 07:08:11;;;;;;;7.40;4.08;;;;;;;14.46;74.77;97597.46;1535705;92;26099;-80
2022/06/14 07:10:45;;;;;;;11.00;5.05;;;;;;;14.52;74.05;97596.52;1535593;93;25828;-81
2022/06/14 07:13:24;;;;;;;9.65;4.45;;;;;;;14.56;74.13;97600.97;1543827;90;25769;-80
2022/06/14 07:16:22;;;;;;;8.55;4.03;;;;;;;14.64;73.78;97599.27;1574163;90;25949;-79
2022/06/14 07:19:16;;;;;;;7.90;3.70;;;;;;;14.72;73.68;97598.42;1571375;90;28246;-77
2022/06/14 07:21:52;;;;;;;6.65;3.12;;;;;;;14.83;73.55;97597.32;1548151;91;26392;-77
2022/06/14 07:24:33;;;;;;;5.75;3.10;;;;;;;14.88;73.24;97596.07;1548108;92;25849;-79
2022/06/14 07:30:18;;;;;;;6.25;3.20;;;;;;;15.12;72.83;97593.67;1512189;93;25588;-77
2022/06/14 07:32:51;;;;;;;6.10;2.80;;;;;;;15.23;72.65;97595.56;1491416;95;28073;-78
2022/06/14 07:35:46;;;;;;;9.15;2.85;;;;;;;15.34;72.28;97600.17;1405669;100;26553;-77
2022/06/14 07:38:36;;;;;;;6.72;2.80;;;;;;;15.45;71.75;97598.02;1431629;100;25905;-80
2022/06/14 07:41:32;;;;;;;10.98;4.33;;;;;;;15.59;71.68;97599.13;1432462;98;26075;-78
2022/06/14 07:44:20;;;;;;;5.58;2.47;;;;;;;15.71;70.60;97580.89;1432811;100;25569;-79
2022/06/14 07:46:58;;;;;;;4.92;2.85;;;;;;;15.76;70.70;97587.28;1460324;98;28197;-79
2022/06/14 07:49:34;;;;;;;4.87;2.33;;;;;;;15.79;70.31;97589.53;1461936;98;25775;-78
2022/06/14 07:52:21;;;;;;;9.00;2.22;;;;;;;15.81;69.82;97587.94;1460803;98;26236;-78
2022/06/14 07:54:54;;;;;;;5.25;2.25;;;;;;;15.97;69.49;97588.52;1475661;96;26566;-80
2022/06/14 07:57:31;;;;;;;7.53;2.08;;;;;;;16.13;69.21;97595.11;1467511;96;26021;-77
2022/06/14 08:03:05;;;;;;;3.45;2.42;;;;;;;16.26;68.19;97591.28;1478642;92;25687;-78
2022/06/14 08:05:35;;;;;;;3.67;1.52;;;;;;;16.75;68.10;97602.86;1561006;91;25906;-78
2022/06/14 08:08:05;;;;;;;4.30;1.82;;;;;;;17.05;67.10;97600.34;1521054;92;25696;-78
2022/06/14 08:10:37;;;;;;;4.28;2.27;;;;;;;17.15;66.45;97602.70;1552949;90;25588;-80
2022/06/14 08:13:06;;;;;;;;;;;;;;;17.35;65.08;97603.58;1561388;89;27501;-78
2022/06/14 08:15:38;;;;;;;3.00;2.10;;;;;;;17.52;65.27;97609.81;1580779;89;25891;-76
2022/06/14 08:18:10;;;;;;;3.20;2.08;;;;;;;17.98;65.62;97600.41;1532817;92;25900;-79
2022/06/14 08:20:51;;;;;;;3.22;1.62;;;;;;;18.21;64.12;97603.95;1513584;94;26606;-79
2022/06/14 08:23:31;;;;;;;4.45;1.98;;;;;;;17.87;63.15;97608.72;1532263;92;25831;-81
2022/06/14 08:26:06;;;;;;;7.12;2.02;;;;;;;17.75;63.19;97612.11;1532700;92;27506;-79
2022/06/14 08:28:40;;;;;;;2.90;1.45;;;;;;;18.00;63.38;97610.52;1512652;94;26180;-80
2022/06/14 08:31:18;;;;;;;5.62;2.42;;;;;;;18.50;63.63;97604.00;1517105;91;25860;-77
2022/06/14 08:33:53;;;;;;;3.25;1.85;;;;;;;19.13;62.88;97603.81;1535231;92;25821;-79
2022/06/14 08:36:50;;;;;;;5.53;1.50;;;;;;;19.52;61.32;97604.41;1498141;94;26098;-78
2022/06/14 08:39:38;;;;;;;4.28;1.95;;;;;;;19.50;60.60;97599.73;1415767;100;26941;-77
2022/06/14 08:42:37;;;;;;;3.62;1.47;;;;;;;19.78;59.77;97603.48;1429942;98;25837;-78
2022/06/14 08:45:30;;;;;;;3.17;1.60;;;;;;;20.14;58.81;97586.67;1430245;98;26067;-78
2022/06/14 08:48:06;;;;;;;5.47;1.77;;;;;;;19.90;57.58;97607.92;1408399;100;25899;-78
2022/06/14 08:51:16;;;;;;;7.00;2.00;;;;;;;19.95;58.11;97599.72;1408101;101;26094;-79
2022/06/14 08:54:23;;;;;;;4.37;1.55;;;;;;;20.28;58.10;97607.55;1424380;100;27558;-78
2022/06/14 08:57:28;;;;;;;5.10;1.80;;;;;;;20.79;56.33;97602.22;1407457;100;25875;-81
2022/06/14 09:00:09;;;;;;;3.65;1.50;;;;;;;20.72;55.61;97604.41;1371550;103;25968;-78
2022/06/14 09:02:57;;;;;;;2.00;1.40;;;;;;;20.72;55.61;97604.41;1349765;104;25879;-79
2022/06/14 09:05:42;;;;;;;3.87;1.40;;;;;;;20.55;54.96;97603.27;1341365;105;25856;-78
2022/06/14 09:08:39;;;;;;;4.47;1.60;;;;;;;20.29;54.53;97599.58;1352452;104;27453;-79
2022/06/14 09:11:42;;;;;;;2.27;1.40;;;;;;;20.52;54.91;97592.86;1342757;105;25907;-80
2022/06/14 09:14:41;;;;;;;;;;;;;;;21.28;54.52;97593.48;1331414;106;25943;-78
2022/06/14 09:17:51;;;;;;;3.00;1.60;;;;;;;21.79;51.94;97593.70;1346200;104;26392;-78
2022/06/14 09:20:38;;;;;;;3.77;1.40;;;;;;;21.84;52.69;97588.20;1343519;105;25823;-78
2022/06/14 09:23:42;;;;;;;5.72;1.47;;;;;;;22.02;52.33;97577.72;1329644;106;27507;-78
2022/06/14 09:26:35;;;;;;;2.62;1.10;;;;;;;22.17;51.98;97576.28;1327717;106;26071;-79
2022/06/14 09:29:33;;;;;;;4.62;1.40;;;;;;;22.26;51.13;97574.59;1283787;111;25959;-77
2022/06/14 09:36:00;;;;;;;3.58;1.57;;;;;;;21.57;49.32;97571.23;1327614;106;26034;-79
2022/06/14 09:39:18;;;;;;;4.00;1.10;;;;;;;21.69;50.58;97562.69;1360221;105;28204;-79
2022/06/14 09:42:21;;;;;;;3.20;1.22;;;;;;;21.97;49.60;97561.23;1396006;100;26044;-78
2022/06/14 09:45:02;;;;;;;1.77;1.00;;;;;;;21.63;48.96;97570.09;1426160;99;25906;-80
2022/06/14 09:48:12;;;;;;;2.87;1.30;;;;;;;21.33;47.83;97571.54;1436611;98;26360;-80
2022/06/14 09:51:06;;;;;;;4.70;1.82;;;;;;;20.54;48.13;97571.99;1394548;102;25882;-80
2022/06/14 09:53:53;;;;;;;2.60;1.50;;;;;;;20.37;48.92;97566.22;1394636;102;28017;-79
2022/06/14 09:56:40;;;;;;;1.65;1.15;;;;;;;20.24;48.54;97570.80;1399702;99;25511;-79
2022/06/14 09:59:44;;;;;;;2.42;1.12;;;;;;;20.05;48.78;97575.09;1434855;99;26611;-78
2022/06/14 10:03:00;;;;;;;3.60;1.10;;;;;;;20.02;48.55;97577.02;1436518;98;25904;-79
2022/06/14 10:05:49;;;;;;;2.95;1.20;;;;;;;19.97;48.05;97568.77;1440847;96;25933;-78
2022/06/14 10:08:30;;;;;;;3.77;1.40;;;;;;;19.57;48.27;97571.57;1461685;97;28167;-78
2022/06/14 10:11:38;;;;;;;5.58;1.20;;;;;;;19.26;49.21;97576.55;1431130;98;25773;-78
2022/06/14 10:14:18;;;;;;;3.95;1.20;;;;;;;19.22;48.87;97573.50;1442748;99;25784;-79
2022/06/14 10:17:02;;;;;;;2.67;1.20;;;;;;;19.09;48.73;97578.05;1462928;97;25935;-80
2022/06/14 10:20:06;;;;;;;2.92;1.77;;;;;;;19.06;48.55;97573.95;1427338;100;25814;-79
2022/06/14 10:23:02;;;;;;;3.47;1.67;;;;;;;19.13;48.80;97573.71;1435340;99;28183;-77
2022/06/14 10:28:52;;;;;;;4.60;1.25;;;;;;;19.24;49.12;97578.72;1496790;93;25913;-78
2022/06/14 10:31:30;;;;;;;4.72;1.40;;;;;;;19.13;49.26;97576.45;1491184;96;25812;-77
2022/06/14 10:34:30;;;;;;;4.12;1.30;;;;;;;19.05;49.13;97576.40;1559905;90;25873;-81
2022/06/14 10:37:14;;;;;;;12.40;1.70;;;;;;;19.00;49.28;97584.55;1552817;90;27507;-78
2022/06/14 10:40:20;;;;;;;4.67;1.67;;;;;;;18.91;49.35;97583.39;1580620;90;25872;-78
2022/06/14 10:43:00;;;;;;;2.30;1.40;;;;;;;18.95;49.28;97588.62;1567460;90;25818;-80
2022/06/14 10:45:57;;;;;;;1.90;1.07;;;;;;;19.06;49.32;97572.58;1551417;90;25904;-78
2022/06/14 10:49:21;;;;;;;3.08;1.00;;;;;;;19.38;49.03;97578.55;1619475;87;25786;-79
2022/06/14 10:52:05;;;;;;;4.53;1.10;;;;;;;19.63;48.77;97581.48;1664492;86;27448;-78
2022/06/14 10:55:11;;;;;;;1.95;1.10;;;;;;;19.60;48.16;97574.33;1660994;86;25818;-78
2022/06/14 10:58:20;;;;;;;6.75;1.30;;;;;;;19.42;47.99;97576.40;1664614;86;25841;-80
2022/06/14 11:01:14;;;;;;;3.20;0.95;;;;;;;19.29;47.79;97581.50;1649356;86;25285;-79
2022/06/14 11:04:02;;;;;;;2.50;1.00;;;;;;;19.13;48.07;97575.63;1627511;88;25789;-79
2022/06/14 11:07:07;;;;;;;3.12;1.15;;;;;;;18.95;48.18;97584.53;1627519;88;28187;-80
2022/06/14 11:10:05;;;;;;;3.08;1.25;;;;;;;18.93;48.33;97581.22;1587691;88;25884;-77
2022/06/14 11:13:25;;;;;;;1.85;1.25;;;;;;;18.88;48.28;97579.80;1589977;89;26005;-77
2022/06/14 11:16:03;;;;;;;2.60;1.52;;;;;;;18.87;48.43;97586.34;1586719;90;25957;-80
2022/06/14 11:18:47;;;;;;;2.87;1.20;;;;;;;18.87;48.49;97582.78;1586581;90;26111;-80
2022/06/14 11:21:49;;;;;;;4.97;1.62;;;;;;;18.85;48.46;97584.95;1548515;91;28741;-81
2022/06/14 11:24:29;;;;;;;5.62;1.47;;;;;;;18.79;48.35;97577.80;1559346;89;25950;-77
2022/06/14 11:27:04;;;;;;;6.22;1.55;;;;;;;18.80;48.65;97584.92;1591918;89;25785;-77
2022/06/14 11:30:05;;;;;;;2.85;1.30;;;;;;;18.77;48.71;97590.36;1591516;90;26696;-79
2022/06/14 11:32:41;;;;;;;6.62;1.65;;;;;;;18.96;49.05;97582.59;1591305;90;26154;-78
2022/06/14 11:35:48;;;;;;;4.15;1.72;;;;;;;19.08;48.90;97586.80;1570779;90;27433;-80
2022/06/14 11:38:43;;;;;;;7.92;1.62;;;;;;;19.04;48.50;97591.16;1589491;89;25811;-78
2022/06/14 11:41:14;;;;;;;4.65;1.35;;;;;;;18.99;48.94;97587.55;1521494;94;25842;-77
2022/06/14 11:44:10;;;;;;;2.45;1.20;;;;;;;18.98;48.52;97584.52;1525709;94;26649;-78
2022/06/14 11:47:05;;;;;;;4.28;1.40;;;;;;;19.21;49.19;97580.05;1461521;96;25703;-79
2022/06/14 11:49:45;;;;;;;1.77;1.25;;;;;;;19.53;48.84;97586.90;1473687;95;27453;-78
2022/06/14 11:52:54;;;;;;;3.27;1.55;;;;;;;19.54;48.53;97581.70;1487522;95;25882;-79
2022/06/14 11:55:40;;;;;;;2.33;1.32;;;;;;;19.22;48.04;97582.25;1496938;95;25824;-77
2022/06/14 11:58:21;;;;;;;2.90;1.35;;;;;;;19.11;49.20;97577.79;1504123;94;25884;-79
2022/06/14 12:01:15;;;;;;;1.92;1.07;;;;;;;19.24;48.78;97568.59;1431316;100;25970;-79
2022/06/14 12:03:59;;;;;;;1.62;1.02;;;;;;;19.37;48.06;97567.31;1430052;99;27531;-78
2022/06/14 12:06:48;;;;;;;1.57;1.00;;;;;;;19.41;47.89;97569.81;1423165;100;25830;-77
2022/06/14 12:09:51;;;;;;;2.67;1.22;;;;;;;19.38;48.04;97568.97;1414894;101;25896;-78
2022/06/14 12:13:09;;;;;;;1.57;1.00;;;;;;;19.33;48.16;97570.29;1415130;101;26404;-77
2022/06/14 12:16:03;;;;;;;3.20;1.42;;;;;;;19.30;48.11;97565.36;1441976;98;25831;-77
2022/06/14 12:18:34;;;;;;;3.77;1.27;;;;;;;19.50;48.71;97561.41;1468574;95;27446;-77
2022/06/14 12:21:39;;;;;;;2.33;1.37;;;;;;;19.61;47.93;97567.77;1478210;95;25883;-77
2022/06/14 12:24:10;;;;;;;3.83;1.20;;;;;;;19.52;47.59;97572.93;1477746;97;25911;-78
2022/06/14 12:26:59;;;;;;;2.52;1.10;;;;;;;19.14;47.24;97577.27;1478021;95;25909;-78
2022/06/14 12:29:30;;;;;;;3.35;1.27;;;;;;;18.81;47.22;97573.73;1476853;97;25701;-76
2022/06/14 12:32:21;;;;;;;1.80;1.10;;;;;;;18.59;47.53;97575.71;1455665;98;27503;-77
2022/06/14 12:35:08;;;;;;;3.98;1.25;;;;;;;18.80;47.82;97568.52;1477734;97;26034;-77
2022/06/14 12:37:51;;;;;;;1.45;0.98;;;;;;;19.22;48.68;97563.09;1410247;101;25980;-78
2022/06/14 12:40:38;;;;;;;2.50;1.12;;;;;;;19.34;48.00;97565.09;1412863;101;25915;-77
2022/06/14 12:43:16;;;;;;;4.80;0.98;;;;;;;19.25;48.04;97570.25;1424960;99;26078;-77
2022/06/14 12:46:00;;;;;;;2.60;1.40;;;;;;;19.22;47.50;97574.87;1436319;99;27502;-77
2022/06/14 12:49:02;;;;;;;1.87;1.20;;;;;;;19.29;47.20;97570.55;1463874;96;25891;-78
2022/06/14 12:51:56;;;;;;;3.55;1.47;;;;;;;19.37;48.18;97565.95;1479369;96;26043;-78
2022/06/14 12:54:36;;;;;;;2.10;1.30;;;;;;;19.30;47.71;97560.72;1516515;92;25696;-77
2022/06/14 12:57:20;;;;;;;1.98;1.37;;;;;;;19.34;48.09;97560.99;1566428;88;25925;-77
2022/06/14 13:00:07;;;;;;;3.27;1.35;;;;;;;19.62;48.43;97553.81;1626902;88;28551;-77
2022/06/14 13:03:21;;;;;;;2.17;0.95;;;;;;;20.01;48.30;97561.67;1627084;88;26300;-78
2022/06/14 13:05:56;;;;;;;3.85;0.95;;;;;;;20.40;47.54;97553.34;1626893;88;25829;-79
2022/06/14 13:08:34;;;;;;;2.98;0.93;;;;;;;20.77;46.41;97546.83;1601446;89;25843;-78
2022/06/14 13:11:29;;;;;;;6.83;1.20;;;;;;;20.93;45.41;97551.20;1598571;89;25920;-79